Time;durP1;ratioP1;P1;durP2;ratioP2;P2;SDS_P1;SDS_P2;PMS_P1;PMS_P2;Temp;Humidity;BMP_temperature;BMP_pressure;BME280_temperature;BME280_humidity;BME280_pressure;Samples;Min_cycle;Max_cycle;Signal;HPM_P1;HPM_P2
2022/10/18 00:01:41;;;;;;;18.15;9.55;;;12.80;99.90;;;;;;5032915;28;20076;-86
2022/10/18 00:04:07;;;;;;;19.45;9.30;;;12.70;99.90;;;;;;5047864;28;20045;-86
2022/10/18 00:06:32;;;;;;;20.17;8.05;;;12.70;99.90;;;;;;5046861;28;20037;-85
2022/10/18 00:08:58;;;;;;;66.72;11.88;;;12.80;99.90;;;;;;5018992;28;20041;-86
2022/10/18 00:11:24;;;;;;;207.98;20.48;;;12.70;99.90;;;;;;5032230;28;20050;-86
2022/10/18 00:13:50;;;;;;;141.88;16.08;;;12.70;99.90;;;;;;5030440;28;20075;-86
2022/10/18 00:16:17;;;;;;;50.80;11.75;;;12.70;99.90;;;;;;5031679;28;20041;-86
2022/10/18 00:18:43;;;;;;;313.70;26.65;;;12.70;99.90;;;;;;5052106;28;20037;-85
2022/10/18 00:21:18;;;;;;;202.38;27.35;;;12.70;99.90;;;;;;5043758;28;20057;-86
2022/10/18 00:23:46;;;;;;;20.00;9.75;;;12.60;99.90;;;;;;5055003;28;20034;-86
2022/10/18 00:26:24;;;;;;;15.73;8.52;;;12.70;99.90;;;;;;5029078;28;21735;-86
2022/10/18 00:28:59;;;;;;;13.23;7.43;;;12.60;99.90;;;;;;5045106;28;20046;-85
2022/10/18 00:31:31;;;;;;;114.93;17.20;;;12.60;99.90;;;;;;5029654;28;20048;-85
2022/10/18 00:34:02;;;;;;;20.45;7.25;;;12.60;99.90;;;;;;5053004;28;20049;-85
2022/10/18 00:36:29;;;;;;;125.10;14.88;;;12.50;99.90;;;;;;5035235;28;20128;-85
2022/10/18 00:38:55;;;;;;;9.93;6.28;;;12.50;99.90;;;;;;5033658;28;20115;-86
2022/10/18 00:41:25;;;;;;;140.77;21.38;;;12.40;99.90;;;;;;5030162;28;20042;-86
2022/10/18 00:43:57;;;;;;;56.08;11.15;;;12.40;99.90;;;;;;5040030;28;20138;-85
2022/10/18 00:46:25;;;;;;;78.07;14.68;;;12.50;99.90;;;;;;5050689;28;20087;-86
2022/10/18 00:48:51;;;;;;;22.73;9.00;;;12.50;99.90;;;;;;5024923;28;20451;-85
2022/10/18 00:51:20;;;;;;;16.05;8.55;;;12.50;99.90;;;;;;5039653;28;20045;-86
2022/10/18 00:53:46;;;;;;;17.13;9.85;;;12.50;99.90;;;;;;5035179;28;21867;-85
2022/10/18 00:56:12;;;;;;;23.98;8.75;;;12.60;99.90;;;;;;5031227;28;20076;-85
2022/10/18 00:58:38;;;;;;;16.05;8.77;;;12.50;99.90;;;;;;5027068;28;20044;-85
2022/10/18 01:01:04;;;;;;;248.52;28.58;;;12.50;99.90;;;;;;5030016;28;20420;-86
2022/10/18 01:03:30;;;;;;;221.32;27.00;;;12.50;99.90;;;;;;5048525;28;20056;-86
2022/10/18 01:05:56;;;;;;;50.97;13.77;;;12.60;99.90;;;;;;5009869;28;20802;-85
2022/10/18 01:08:32;;;;;;;92.05;15.77;;;12.60;99.90;;;;;;5027404;28;20059;-86
2022/10/18 01:11:30;;;;;;;36.22;11.43;;;12.60;99.90;;;;;;5039231;28;20499;-86
2022/10/18 01:14:27;;;;;;;109.85;13.80;;;12.60;99.90;;;;;;5029687;28;20041;-86
2022/10/18 01:17:05;;;;;;;13.00;7.50;;;12.50;99.90;;;;;;5044155;28;20044;-87
2022/10/18 01:20:01;;;;;;;12.13;7.13;;;12.50;99.90;;;;;;5023114;28;20052;-86
2022/10/18 01:23:04;;;;;;;11.48;6.60;;;12.50;99.90;;;;;;5040891;28;20614;-86
2022/10/18 01:26:03;;;;;;;190.95;21.30;;;12.50;99.90;;;;;;5055937;28;20108;-86
2022/10/18 01:28:56;;;;;;;15.18;7.88;;;12.40;99.90;;;;;;5032432;28;20049;-86
2022/10/18 01:31:48;;;;;;;78.97;13.07;;;12.40;99.90;;;;;;5047231;28;20067;-86
2022/10/18 01:34:17;;;;;;;95.00;12.88;;;12.40;99.90;;;;;;5044116;28;20056;-86
2022/10/18 01:36:53;;;;;;;13.07;6.32;;;12.40;99.90;;;;;;5034595;28;20041;-86
2022/10/18 01:39:32;;;;;;;11.60;7.28;;;12.30;99.90;;;;;;5036685;28;20144;-86
2022/10/18 01:42:01;;;;;;;12.38;7.13;;;12.30;99.90;;;;;;5025424;28;20068;-86
2022/10/18 01:44:30;;;;;;;9.13;6.38;;;12.30;99.90;;;;;;5029804;28;20033;-86
2022/10/18 01:46:57;;;;;;;18.48;7.43;;;12.30;99.90;;;;;;5042899;28;20047;-86
2022/10/18 01:49:23;;;;;;;10.45;6.10;;;12.30;99.90;;;;;;5052013;28;20119;-86
2022/10/18 01:51:49;;;;;;;32.90;8.27;;;12.20;99.90;;;;;;5031517;28;20048;-86
2022/10/18 01:54:20;;;;;;;96.20;16.25;;;12.30;99.90;;;;;;5031807;28;21349;-87
2022/10/18 01:57:01;;;;;;;30.97;8.60;;;12.30;99.90;;;;;;5024473;28;20037;-86
2022/10/18 01:59:54;;;;;;;27.60;8.63;;;12.30;99.90;;;;;;5034146;28;20300;-86
2022/10/18 02:02:53;;;;;;;13.23;7.05;;;12.30;99.90;;;;;;5027338;28;20038;-87
2022/10/18 02:05:31;;;;;;;12.30;7.90;;;12.30;99.90;;;;;;5032355;28;20088;-86
2022/10/18 02:08:03;;;;;;;31.02;8.52;;;12.30;99.90;;;;;;5056766;28;20041;-86
2022/10/18 02:10:38;;;;;;;42.58;10.27;;;12.30;99.90;;;;;;5049541;28;20468;-86
2022/10/18 02:13:05;;;;;;;14.57;7.55;;;12.40;99.90;;;;;;5040335;28;20648;-86
2022/10/18 02:15:36;;;;;;;34.95;10.48;;;12.30;99.90;;;;;;5041150;28;20046;-86
2022/10/18 02:18:06;;;;;;;44.00;11.75;;;12.40;99.90;;;;;;5044343;28;20056;-86
2022/10/18 02:20:33;;;;;;;34.83;10.88;;;12.40;99.90;;;;;;5026594;28;20053;-86
2022/10/18 02:23:02;;;;;;;37.72;10.93;;;12.40;99.90;;;;;;5041442;28;20408;-86
2022/10/18 02:25:33;;;;;;;33.08;10.02;;;12.40;99.90;;;;;;5042440;28;20046;-87
2022/10/18 02:28:03;;;;;;;22.45;9.77;;;12.40;99.90;;;;;;5031868;28;20057;-85
2022/10/18 02:30:39;;;;;;;21.75;9.30;;;12.50;99.90;;;;;;5043456;28;20038;-86
2022/10/18 02:33:24;;;;;;;80.45;15.65;;;12.50;99.90;;;;;;5040972;28;20132;-86
2022/10/18 02:35:58;;;;;;;19.67;9.05;;;12.40;99.90;;;;;;5017919;28;20034;-86
2022/10/18 02:38:25;;;;;;;26.88;9.35;;;12.50;99.90;;;;;;5042696;28;20317;-85
2022/10/18 02:40:51;;;;;;;65.28;14.45;;;12.40;99.90;;;;;;5042229;28;20103;-85
2022/10/18 02:43:17;;;;;;;75.05;16.48;;;12.50;99.90;;;;;;5043607;28;20045;-85
2022/10/18 02:45:43;;;;;;;65.50;15.55;;;12.50;99.90;;;;;;5030707;28;20033;-85
2022/10/18 02:48:08;;;;;;;67.70;14.23;;;12.50;99.90;;;;;;5031096;28;20071;-85
2022/10/18 02:50:34;;;;;;;49.28;12.65;;;12.40;99.90;;;;;;5037155;28;20068;-86
2022/10/18 02:53:00;;;;;;;93.13;18.42;;;12.50;99.90;;;;;;5038615;28;20552;-86
2022/10/18 02:55:25;;;;;;;33.97;11.07;;;12.50;99.90;;;;;;5049090;28;20114;-85
2022/10/18 02:57:51;;;;;;;27.17;10.73;;;12.50;99.90;;;;;;5028964;28;20049;-87
2022/10/18 03:00:17;;;;;;;44.70;12.68;;;12.50;99.90;;;;;;5032457;28;20056;-86
2022/10/18 03:02:42;;;;;;;27.10;9.30;;;12.50;99.90;;;;;;5049048;28;20049;-86
2022/10/18 03:05:08;;;;;;;44.05;10.35;;;12.50;99.90;;;;;;5047945;28;20033;-86
2022/10/18 03:07:34;;;;;;;61.63;13.43;;;12.40;99.90;;;;;;5022842;28;20120;-86
2022/10/18 03:09:59;;;;;;;31.63;10.63;;;12.40;99.90;;;;;;5016254;28;20037;-86
2022/10/18 03:12:25;;;;;;;32.83;8.80;;;12.40;99.90;;;;;;5035627;28;20497;-86
2022/10/18 03:14:51;;;;;;;61.63;13.90;;;12.40;99.90;;;;;;5034412;28;20166;-86
2022/10/18 03:17:17;;;;;;;15.32;7.88;;;12.40;99.90;;;;;;5050621;28;20045;-85
2022/10/18 03:19:42;;;;;;;43.85;11.50;;;12.40;99.90;;;;;;5045148;28;20041;-85
2022/10/18 03:22:08;;;;;;;22.50;9.88;;;12.40;99.90;;;;;;5017477;28;20195;-86
2022/10/18 03:24:34;;;;;;;15.95;8.38;;;12.40;99.90;;;;;;5043616;28;20045;-85
2022/10/18 03:26:59;;;;;;;35.45;9.25;;;12.40;99.90;;;;;;5058854;28;20060;-85
2022/10/18 03:29:25;;;;;;;39.45;13.20;;;12.40;99.90;;;;;;5044941;28;20045;-86
2022/10/18 03:31:51;;;;;;;27.77;9.90;;;12.40;99.90;;;;;;5023604;28;20050;-85
2022/10/18 03:34:16;;;;;;;20.63;8.52;;;12.40;99.90;;;;;;5019483;28;20044;-86
2022/10/18 03:36:42;;;;;;;49.10;11.35;;;12.30;99.90;;;;;;5056905;28;20052;-86
2022/10/18 03:39:10;;;;;;;51.58;12.45;;;12.30;99.90;;;;;;5044404;28;20050;-85
2022/10/18 03:41:35;;;;;;;17.08;8.07;;;12.30;99.90;;;;;;5034744;28;20045;-85
2022/10/18 03:44:01;;;;;;;20.17;8.57;;;12.30;99.90;;;;;;5038600;28;20112;-86
2022/10/18 03:46:27;;;;;;;60.47;12.63;;;12.30;99.90;;;;;;5044039;28;20397;-86
2022/10/18 03:48:52;;;;;;;14.82;7.88;;;12.30;99.90;;;;;;5042608;28;20060;-86
2022/10/18 03:51:18;;;;;;;48.75;10.23;;;12.30;99.90;;;;;;5031548;28;20045;-86
2022/10/18 03:53:44;;;;;;;34.60;11.00;;;12.30;99.90;;;;;;5040075;28;20041;-86
2022/10/18 03:56:09;;;;;;;67.03;12.05;;;12.30;99.90;;;;;;5024181;28;20045;-86
2022/10/18 03:58:35;;;;;;;14.07;8.05;;;12.30;99.90;;;;;;5032016;28;20045;-85
2022/10/18 04:01:01;;;;;;;14.45;7.82;;;12.20;99.90;;;;;;5018232;28;20108;-86
2022/10/18 04:03:26;;;;;;;16.27;8.45;;;12.20;99.90;;;;;;5017583;28;20831;-86
2022/10/18 04:05:52;;;;;;;28.00;10.07;;;12.20;99.90;;;;;;5033272;28;20053;-86
2022/10/18 04:08:18;;;;;;;13.65;7.50;;;12.20;99.90;;;;;;5041304;28;20045;-86
2022/10/18 04:10:44;;;;;;;13.85;7.85;;;12.20;99.90;;;;;;5035737;28;20131;-86
2022/10/18 04:13:10;;;;;;;31.83;8.95;;;12.20;99.90;;;;;;5042633;28;20049;-86
2022/10/18 04:15:36;;;;;;;18.35;8.10;;;12.20;99.90;;;;;;5028019;28;20168;-86
2022/10/18 04:18:02;;;;;;;19.55;9.00;;;12.20;99.90;;;;;;5043539;28;20068;-86
2022/10/18 04:20:27;;;;;;;12.68;7.63;;;12.20;99.90;;;;;;5021816;28;20045;-86
2022/10/18 04:22:56;;;;;;;13.60;8.23;;;12.20;99.90;;;;;;5039990;28;20105;-86
2022/10/18 04:25:21;;;;;;;15.88;8.27;;;12.20;99.90;;;;;;5042603;28;20046;-86
2022/10/18 04:27:47;;;;;;;21.40;9.05;;;12.20;99.90;;;;;;5047286;28;21747;-86
2022/10/18 04:30:13;;;;;;;20.02;9.05;;;12.20;99.90;;;;;;5016080;28;20117;-85
2022/10/18 04:32:39;;;;;;;15.52;8.60;;;12.20;99.90;;;;;;5032188;28;20049;-85
2022/10/18 04:35:05;;;;;;;19.83;9.68;;;12.10;99.90;;;;;;5029826;28;20395;-85
2022/10/18 04:37:32;;;;;;;18.33;9.95;;;12.10;99.90;;;;;;5050745;28;20045;-86
2022/10/18 04:39:58;;;;;;;15.02;8.20;;;12.10;99.90;;;;;;5040477;28;20105;-85
2022/10/18 04:42:24;;;;;;;23.90;10.18;;;12.10;99.90;;;;;;5045796;28;20120;-86
2022/10/18 04:44:50;;;;;;;13.98;8.48;;;12.20;99.90;;;;;;5054620;28;20036;-86
2022/10/18 04:47:16;;;;;;;18.83;8.48;;;12.10;99.90;;;;;;5044023;28;20081;-85
2022/10/18 04:49:41;;;;;;;55.97;13.18;;;12.20;99.90;;;;;;5036724;28;20136;-85
2022/10/18 04:52:07;;;;;;;21.85;10.05;;;12.20;99.90;;;;;;5042648;28;20178;-85
2022/10/18 04:54:33;;;;;;;14.38;9.15;;;12.20;99.90;;;;;;5055502;28;20041;-86
2022/10/18 04:56:59;;;;;;;20.98;8.55;;;12.20;99.90;;;;;;5040087;28;20068;-86
2022/10/18 04:59:24;;;;;;;15.93;8.98;;;12.20;99.90;;;;;;5032405;28;20055;-86
2022/10/18 05:01:50;;;;;;;20.10;10.18;;;12.30;99.90;;;;;;5049219;28;20080;-86
2022/10/18 05:04:16;;;;;;;22.95;9.63;;;12.30;99.90;;;;;;5012819;28;20412;-86
2022/10/18 05:06:42;;;;;;;33.63;9.80;;;12.30;99.90;;;;;;5050202;28;20045;-86
2022/10/18 05:09:07;;;;;;;23.13;10.20;;;12.30;99.90;;;;;;5043349;28;20038;-86
2022/10/18 05:11:33;;;;;;;20.00;9.70;;;12.30;99.90;;;;;;5036322;28;20053;-86
2022/10/18 05:13:59;;;;;;;67.13;11.90;;;12.30;99.90;;;;;;5039979;28;20049;-85
2022/10/18 05:16:24;;;;;;;24.63;10.65;;;12.30;99.90;;;;;;5024184;28;20053;-85
2022/10/18 05:18:50;;;;;;;117.55;20.40;;;12.40;99.90;;;;;;5042572;28;20045;-85
2022/10/18 05:21:16;;;;;;;85.65;16.58;;;12.40;99.90;;;;;;5041214;28;20041;-85
2022/10/18 05:23:41;;;;;;;129.48;19.55;;;12.40;99.90;;;;;;5017893;28;20049;-84
2022/10/18 05:26:08;;;;;;;128.38;20.98;;;12.40;99.90;;;;;;5040729;28;20040;-86
2022/10/18 05:28:34;;;;;;;96.22;15.60;;;12.40;99.90;;;;;;5020264;28;20108;-85
2022/10/18 05:31:01;;;;;;;45.60;10.32;;;12.40;99.90;;;;;;5039877;28;20061;-85
2022/10/18 05:33:27;;;;;;;55.58;11.73;;;12.40;99.90;;;;;;5035011;28;20037;-86
2022/10/18 05:35:53;;;;;;;30.00;9.82;;;12.40;99.90;;;;;;5038164;28;20041;-87
2022/10/18 05:38:19;;;;;;;121.97;16.88;;;12.40;99.90;;;;;;5032338;28;20051;-86
2022/10/18 05:40:45;;;;;;;30.77;9.75;;;12.40;99.90;;;;;;5044886;28;20055;-86
2022/10/18 05:43:11;;;;;;;26.70;8.85;;;12.30;99.90;;;;;;5049368;28;20825;-86
2022/10/18 05:45:36;;;;;;;12.70;6.72;;;12.30;99.90;;;;;;5039855;28;20045;-87
2022/10/18 05:48:03;;;;;;;26.48;7.97;;;12.30;99.90;;;;;;5050305;28;20049;-85
2022/10/18 05:50:29;;;;;;;17.95;5.78;;;12.20;99.90;;;;;;5041151;28;20048;-86
2022/10/18 05:52:56;;;;;;;29.35;8.23;;;12.20;99.90;;;;;;5028502;28;20045;-86
2022/10/18 05:55:22;;;;;;;56.15;12.00;;;12.10;99.90;;;;;;5036668;28;20059;-86
2022/10/18 05:57:49;;;;;;;13.05;5.65;;;12.10;99.90;;;;;;5041122;28;20049;-86
2022/10/18 06:00:16;;;;;;;13.85;6.22;;;12.10;99.90;;;;;;5026758;28;20029;-86
2022/10/18 06:02:41;;;;;;;17.85;5.93;;;12.10;99.90;;;;;;5045867;28;20128;-86
2022/10/18 06:05:07;;;;;;;11.88;6.15;;;12.00;99.90;;;;;;5033015;28;20516;-85
2022/10/18 06:07:33;;;;;;;11.90;5.75;;;12.00;99.90;;;;;;5044592;28;20060;-86
2022/10/18 06:09:58;;;;;;;28.23;6.80;;;11.90;99.90;;;;;;5039826;28;20096;-85
2022/10/18 06:12:24;;;;;;;35.25;8.05;;;12.00;99.90;;;;;;5031849;28;20049;-86
2022/10/18 06:14:50;;;;;;;10.55;5.05;;;12.00;99.90;;;;;;5048330;28;20045;-86
2022/10/18 06:17:15;;;;;;;15.52;5.40;;;11.90;99.90;;;;;;5037582;28;20041;-86
2022/10/18 06:19:43;;;;;;;23.58;7.13;;;11.90;99.90;;;;;;5049615;28;20052;-86
2022/10/18 06:22:09;;;;;;;36.53;7.80;;;11.80;99.90;;;;;;5039319;28;20647;-85
2022/10/18 06:24:35;;;;;;;17.40;6.10;;;11.80;99.90;;;;;;5058284;28;20059;-86
2022/10/18 06:27:07;;;;;;;23.73;6.50;;;11.80;99.90;;;;;;5029941;28;20041;-88
2022/10/18 06:29:39;;;;;;;33.05;6.47;;;11.80;99.90;;;;;;5040305;28;20064;-87
2022/10/18 06:32:06;;;;;;;28.48;6.93;;;11.70;99.90;;;;;;5037402;28;20091;-87
2022/10/18 06:34:33;;;;;;;12.18;5.88;;;11.70;99.90;;;;;;5053363;28;20045;-87
2022/10/18 06:36:59;;;;;;;8.63;4.80;;;11.70;99.90;;;;;;5030175;28;20546;-87
2022/10/18 06:39:25;;;;;;;42.00;7.82;;;11.70;99.90;;;;;;5007951;28;20049;-87
2022/10/18 06:41:51;;;;;;;22.48;5.75;;;11.70;99.90;;;;;;5024996;28;20657;-87
2022/10/18 06:44:17;;;;;;;14.82;4.95;;;11.70;99.90;;;;;;5039714;28;20052;-87
2022/10/18 06:46:44;;;;;;;9.55;5.05;;;11.60;99.90;;;;;;5056655;28;20112;-87
2022/10/18 06:49:10;;;;;;;28.52;6.13;;;11.60;99.90;;;;;;5044504;28;20106;-87
2022/10/18 06:51:36;;;;;;;11.95;4.53;;;11.60;99.90;;;;;;5045476;28;20057;-88
2022/10/18 06:54:02;;;;;;;18.55;5.10;;;11.60;99.90;;;;;;5051898;28;20068;-89
2022/10/18 06:56:28;;;;;;;8.70;3.83;;;11.60;99.90;;;;;;5034412;28;20520;-89
2022/10/18 06:58:54;;;;;;;75.95;9.38;;;11.60;99.90;;;;;;5022186;28;20041;-84
2022/10/18 07:01:20;;;;;;;11.02;5.85;;;11.70;99.90;;;;;;5039413;28;20049;-85
2022/10/18 07:03:47;;;;;;;13.38;5.47;;;11.70;99.90;;;;;;5038057;28;20563;-85
2022/10/18 07:06:15;;;;;;;40.05;6.90;;;11.70;99.90;;;;;;5026628;28;20042;-85
2022/10/18 07:08:41;;;;;;;10.40;4.78;;;11.70;99.90;;;;;;5037728;28;20131;-85
2022/10/18 07:11:12;;;;;;;25.40;6.10;;;11.70;99.90;;;;;;5033220;28;20127;-84
2022/10/18 07:13:38;;;;;;;24.80;5.43;;;11.80;99.90;;;;;;5020850;28;20049;-85
2022/10/18 07:16:07;;;;;;;16.33;5.15;;;11.90;99.90;;;;;;5021713;28;20064;-85
2022/10/18 07:18:37;;;;;;;22.33;5.45;;;11.90;99.90;;;;;;5021558;28;20048;-85
2022/10/18 07:21:05;;;;;;;37.75;6.22;;;11.90;99.90;;;;;;5054485;28;20049;-85
2022/10/18 07:23:33;;;;;;;26.65;5.53;;;11.90;99.90;;;;;;5041952;28;20059;-86
2022/10/18 07:26:00;;;;;;;12.40;3.83;;;11.90;99.90;;;;;;5034432;28;20048;-86
2022/10/18 07:28:26;;;;;;;24.52;4.90;;;11.90;99.90;;;;;;5023083;28;20073;-86
2022/10/18 07:30:52;;;;;;;8.80;5.38;;;11.90;99.90;;;;;;5030938;28;20061;-86
2022/10/18 07:33:19;;;;;;;29.02;4.90;;;12.00;99.90;;;;;;5040905;28;20053;-86
2022/10/18 07:35:46;;;;;;;18.42;4.53;;;12.00;99.90;;;;;;5023845;28;20045;-85
2022/10/18 07:38:11;;;;;;;27.60;5.20;;;12.10;99.90;;;;;;5025651;28;20052;-87
2022/10/18 07:40:37;;;;;;;6.88;4.25;;;12.10;99.90;;;;;;5007616;28;20045;-86
2022/10/18 07:43:03;;;;;;;17.40;5.03;;;12.10;99.90;;;;;;5007906;28;20042;-86
2022/10/18 07:45:29;;;;;;;37.45;5.75;;;12.20;99.90;;;;;;5047273;28;20047;-86
2022/10/18 07:47:55;;;;;;;42.65;16.50;;;12.20;99.90;;;;;;5046527;28;20037;-86
2022/10/18 07:50:21;;;;;;;13.48;4.85;;;12.10;99.90;;;;;;5043504;28;20122;-86
2022/10/18 07:52:47;;;;;;;18.15;4.22;;;12.20;99.90;;;;;;5034801;28;20048;-86
2022/10/18 07:55:13;;;;;;;12.27;4.00;;;12.30;99.90;;;;;;5043125;28;20474;-86
2022/10/18 07:57:38;;;;;;;16.33;4.15;;;12.30;99.90;;;;;;5013686;28;20036;-87
2022/10/18 08:00:04;;;;;;;46.83;5.43;;;12.30;99.90;;;;;;5042358;28;20060;-86
2022/10/18 08:02:30;;;;;;;31.02;5.38;;;12.30;99.90;;;;;;5017186;28;20041;-86
2022/10/18 08:04:56;;;;;;;18.40;4.00;;;12.40;99.90;;;;;;5034686;28;20042;-87
2022/10/18 08:07:21;;;;;;;13.38;4.65;;;12.40;99.90;;;;;;5052091;28;20108;-86
2022/10/18 08:09:47;;;;;;;7.22;4.45;;;12.40;99.90;;;;;;5036262;28;20462;-85
2022/10/18 08:12:14;;;;;;;26.73;5.03;;;12.40;99.90;;;;;;5036602;28;20114;-87
2022/10/18 08:14:40;;;;;;;8.80;3.97;;;12.40;99.90;;;;;;5031645;28;20136;-86
2022/10/18 08:17:06;;;;;;;37.28;6.18;;;12.40;99.90;;;;;;5033108;28;20567;-86
2022/10/18 08:19:32;;;;;;;27.92;5.20;;;12.50;99.90;;;;;;5018930;28;20064;-86
2022/10/18 08:21:57;;;;;;;43.95;5.53;;;12.50;99.90;;;;;;5048159;28;20051;-86
2022/10/18 08:24:23;;;;;;;6.72;4.88;;;12.50;99.90;;;;;;5017261;28;20043;-86
2022/10/18 08:26:49;;;;;;;6.20;4.47;;;12.60;99.90;;;;;;5044839;28;20113;-86
2022/10/18 08:29:15;;;;;;;9.93;4.30;;;12.70;99.90;;;;;;5053855;28;20052;-86
2022/10/18 08:31:41;;;;;;;18.15;4.90;;;12.70;99.90;;;;;;5035488;28;20084;-86
2022/10/18 08:34:06;;;;;;;15.18;5.07;;;12.70;99.90;;;;;;5036154;28;20067;-86
2022/10/18 08:36:32;;;;;;;8.35;4.90;;;12.80;99.90;;;;;;5052744;28;20128;-85
2022/10/18 08:38:58;;;;;;;21.80;6.38;;;12.80;99.90;;;;;;5024373;28;20568;-86
2022/10/18 08:41:50;;;;;;;10.63;6.13;;;12.90;99.90;;;;;;5042093;28;20048;-87
2022/10/18 08:44:18;;;;;;;;;;;12.90;99.90;;;;;;5042400;28;20059;-86
2022/10/18 08:46:48;;;;;;;9.52;6.60;;;12.90;99.90;;;;;;5050465;28;19920;-86
2022/10/18 08:49:27;;;;;;;19.33;6.18;;;13.00;99.90;;;;;;5037991;28;20261;-86
2022/10/18 08:51:54;;;;;;;11.35;6.53;;;13.00;99.90;;;;;;5036929;28;20050;-86
2022/10/18 08:54:43;;;;;;;11.30;6.88;;;13.10;99.90;;;;;;5007542;28;20090;-86
2022/10/18 08:57:13;;;;;;;13.00;7.10;;;13.20;99.90;;;;;;5039118;28;20037;-86
2022/10/18 08:59:40;;;;;;;14.48;7.20;;;13.20;99.90;;;;;;5051633;28;20048;-86
2022/10/18 09:02:09;;;;;;;12.68;7.45;;;13.20;99.90;;;;;;5019836;28;20050;-85
2022/10/18 09:04:49;;;;;;;13.57;7.13;;;13.30;99.90;;;;;;5059226;28;20079;-86
2022/10/18 09:07:44;;;;;;;11.50;7.45;;;13.30;99.90;;;;;;5043450;28;20423;-86
2022/10/18 09:10:40;;;;;;;17.95;7.32;;;13.40;99.90;;;;;;5064550;28;20103;-86
2022/10/18 09:13:06;;;;;;;15.13;7.15;;;13.40;99.90;;;;;;5034037;28;20115;-86
2022/10/18 09:15:48;;;;;;;16.00;8.02;;;13.50;99.90;;;;;;5037825;28;20136;-86
2022/10/18 09:18:17;;;;;;;12.55;6.57;;;13.50;99.90;;;;;;5045802;28;20041;-86
2022/10/18 09:21:10;;;;;;;12.73;6.43;;;13.60;99.90;;;;;;5043068;28;20049;-86
2022/10/18 09:24:04;;;;;;;12.40;6.20;;;13.60;99.90;;;;;;5033482;28;20099;-86
2022/10/18 09:26:44;;;;;;;15.90;6.45;;;13.60;99.90;;;;;;5025736;28;20463;-86
2022/10/18 09:30:09;;;;;;;19.10;7.07;;;13.70;99.90;;;;;;5038106;28;20045;-86
2022/10/18 09:32:46;;;;;;;12.00;6.70;;;13.90;99.90;;;;;;5014264;28;20053;-86
2022/10/18 09:35:29;;;;;;;27.35;12.35;;;14.60;99.90;;;;;;5047571;28;20041;-86
2022/10/18 09:38:03;;;;;;;12.25;6.72;;;15.50;99.90;;;;;;5034801;28;20041;-87
2022/10/18 09:40:32;;;;;;;10.00;6.97;;;16.40;99.90;;;;;;5053918;28;20056;-85
2022/10/18 09:43:18;;;;;;;9.95;6.18;;;17.20;99.90;;;;;;5043547;28;20044;-86
2022/10/18 09:45:45;;;;;;;10.07;6.10;;;17.70;99.90;;;;;;5059078;28;20049;-86
2022/10/18 09:48:22;;;;;;;12.98;5.30;;;18.10;99.90;;;;;;5041171;28;20053;-86
2022/10/18 09:51:10;;;;;;;11.70;5.28;;;18.40;99.90;;;;;;5038140;28;20029;-86
2022/10/18 09:53:43;;;;;;;8.57;4.50;;;18.50;99.90;;;;;;5032798;28;20070;-86
2022/10/18 09:56:16;;;;;;;8.20;4.03;;;18.30;99.90;;;;;;5033105;28;20045;-86
2022/10/18 09:58:47;;;;;;;11.98;3.92;;;18.10;99.90;;;;;;5048178;28;20033;-86
2022/10/18 10:01:17;;;;;;;8.77;3.60;;;17.70;99.90;;;;;;5024210;28;20488;-85
2022/10/18 10:03:43;;;;;;;9.43;3.33;;;17.30;99.90;;;;;;5046206;28;20108;-85
2022/10/18 10:06:13;;;;;;;9.00;2.85;;;16.90;99.90;;;;;;5050086;28;20079;-85
2022/10/18 10:08:48;;;;;;;8.48;3.67;;;16.60;99.90;;;;;;5045368;28;20056;-87
2022/10/18 10:11:39;;;;;;;9.52;3.53;;;16.30;99.90;;;;;;5027901;28;20053;-86
2022/10/18 10:14:13;;;;;;;11.50;4.25;;;16.20;99.90;;;;;;5041833;28;20502;-88
2022/10/18 10:16:53;;;;;;;10.65;3.70;;;16.10;99.90;;;;;;5050011;28;20064;-87
2022/10/18 10:19:31;;;;;;;7.13;3.25;;;16.00;99.90;;;;;;5033206;28;20067;-83
2022/10/18 10:22:12;;;;;;;12.45;3.28;;;15.90;99.90;;;;;;5038173;28;20038;-83
2022/10/18 10:24:43;;;;;;;8.48;2.70;;;15.90;99.90;;;;;;5039100;28;20537;-82
2022/10/18 10:27:17;;;;;;;6.95;2.25;;;15.80;99.90;;;;;;5046715;28;20117;-83
2022/10/18 10:29:50;;;;;;;5.18;1.77;;;15.70;99.90;;;;;;5022343;28;20131;-83
2022/10/18 10:32:19;;;;;;;12.27;2.13;;;15.70;99.90;;;;;;5038434;28;20436;-84
2022/10/18 10:34:45;;;;;;;8.80;1.98;;;15.60;99.90;;;;;;5031198;28;20132;-83
2022/10/18 10:37:30;;;;;;;8.35;2.05;;;15.60;99.90;;;;;;5025468;28;20041;-83
2022/10/18 10:40:12;;;;;;;14.32;2.78;;;15.50;99.90;;;;;;5041531;28;20052;-84
2022/10/18 10:43:08;;;;;;;5.75;1.92;;;15.50;99.90;;;;;;5038855;28;20057;-83
2022/10/18 10:45:42;;;;;;;9.38;2.00;;;15.50;99.90;;;;;;5055289;28;20056;-83
2022/10/18 10:48:16;;;;;;;7.20;1.48;;;15.60;99.90;;;;;;5038083;28;20092;-83
2022/10/18 10:50:52;;;;;;;7.07;1.98;;;15.50;99.90;;;;;;5059100;28;20120;-82
2022/10/18 10:53:35;;;;;;;8.18;1.60;;;15.60;99.90;;;;;;5041179;28;20056;-82
2022/10/18 10:56:06;;;;;;;6.57;1.48;;;15.50;99.90;;;;;;5041766;28;20045;-82
2022/10/18 10:58:38;;;;;;;7.18;1.08;;;15.30;99.90;;;;;;5025048;28;20084;-82
2022/10/18 11:01:29;;;;;;;4.70;1.52;;;15.20;99.90;;;;;;5045511;28;20080;-82
2022/10/18 11:03:58;;;;;;;15.80;1.73;;;15.10;99.90;;;;;;5041697;28;20041;-84
2022/10/18 11:06:33;;;;;;;4.63;1.17;;;15.20;99.90;;;;;;5055245;28;20124;-82
2022/10/18 11:09:02;;;;;;;7.40;1.30;;;15.30;99.90;;;;;;5057771;28;20048;-82
2022/10/18 11:11:34;;;;;;;7.60;1.00;;;15.30;99.90;;;;;;5044594;28;20049;-82
2022/10/18 11:14:05;;;;;;;7.00;0.98;;;15.40;99.90;;;;;;5047412;28;20195;-82
2022/10/18 11:17:01;;;;;;;8.53;1.23;;;15.50;99.90;;;;;;5042990;28;20054;-82
2022/10/18 11:19:39;;;;;;;12.70;1.52;;;15.50;99.90;;;;;;5025214;28;20060;-82
2022/10/18 11:22:11;;;;;;;6.53;1.08;;;15.60;99.90;;;;;;5041380;28;20045;-82
2022/10/18 11:24:37;;;;;;;6.85;1.20;;;15.60;99.90;;;;;;5044847;28;20158;-82
2022/10/18 11:27:19;;;;;;;8.98;0.80;;;15.60;99.90;;;;;;5048193;28;20045;-82
2022/10/18 11:29:59;;;;;;;10.43;1.63;;;15.60;99.90;;;;;;5061805;28;20096;-85
2022/10/18 11:32:47;;;;;;;9.40;1.77;;;15.60;99.90;;;;;;5061563;28;20108;-83
2022/10/18 11:35:25;;;;;;;10.90;1.20;;;15.80;99.90;;;;;;5040160;28;20113;-83
2022/10/18 11:38:15;;;;;;;7.60;2.22;;;16.00;99.90;;;;;;5043991;28;20060;-83
2022/10/18 11:40:53;;;;;;;8.82;0.98;;;16.20;99.90;;;;;;5041101;28;20052;-86
2022/10/18 11:43:37;;;;;;;4.93;0.77;;;16.40;99.90;;;;;;5041371;28;20072;-85
2022/10/18 11:46:38;;;;;;;7.45;1.20;;;16.60;99.90;;;;;;5025744;28;20061;-83
2022/10/18 11:49:33;;;;;;;12.70;1.27;;;16.70;99.90;;;;;;5039226;28;20057;-83
2022/10/18 11:52:14;;;;;;;5.95;1.27;;;16.80;99.90;;;;;;5024836;28;20291;-83
2022/10/18 11:54:40;;;;;;;10.75;1.85;;;16.90;99.90;;;;;;5041962;28;20276;-83
2022/10/18 11:57:20;;;;;;;9.30;1.42;;;17.10;99.90;;;;;;5030086;28;20049;-84
2022/10/18 12:00:15;;;;;;;8.00;1.20;;;17.10;99.90;;;;;;5041823;28;20051;-84
2022/10/18 12:02:56;;;;;;;7.22;1.00;;;17.10;99.90;;;;;;5034184;28;20061;-82
2022/10/18 12:05:24;;;;;;;5.70;1.05;;;17.00;99.90;;;;;;5040095;28;20306;-82
2022/10/18 12:08:01;;;;;;;7.88;0.82;;;17.00;99.90;;;;;;5047729;28;20049;-83
2022/10/18 12:10:30;;;;;;;4.97;0.75;;;17.00;99.90;;;;;;5042519;28;20116;-83
2022/10/18 12:13:00;;;;;;;4.75;0.88;;;17.00;99.90;;;;;;5040457;28;20060;-83
2022/10/18 12:15:28;;;;;;;13.63;1.30;;;17.10;99.90;;;;;;5040671;28;20076;-83
2022/10/18 12:18:02;;;;;;;6.80;1.92;;;17.20;99.90;;;;;;5025053;28;20059;-83
2022/10/18 12:20:33;;;;;;;7.93;1.33;;;17.20;99.90;;;;;;5059201;28;20124;-83
2022/10/18 12:23:17;;;;;;;3.58;0.57;;;17.20;99.90;;;;;;5039994;28;20362;-82
2022/10/18 12:25:48;;;;;;;10.15;1.35;;;17.20;99.90;;;;;;5073525;28;20079;-82
2022/10/18 12:28:23;;;;;;;7.13;0.95;;;17.20;99.90;;;;;;5040430;28;20056;-83
2022/10/18 12:31:17;;;;;;;3.13;0.73;;;17.20;99.90;;;;;;5039206;28;20485;-82
2022/10/18 12:33:49;;;;;;;2.53;0.98;;;17.20;99.90;;;;;;5024631;28;20144;-82
2022/10/18 12:36:21;;;;;;;7.07;0.75;;;17.20;99.90;;;;;;5039439;28;20061;-83
2022/10/18 12:38:54;;;;;;;8.38;1.00;;;17.20;99.90;;;;;;5040434;28;20548;-83
2022/10/18 12:41:32;;;;;;;6.07;0.95;;;17.20;99.90;;;;;;5041699;28;20095;-82
2022/10/18 12:44:04;;;;;;;5.78;0.82;;;17.20;99.90;;;;;;5024223;28;20046;-85
2022/10/18 12:47:04;;;;;;;3.75;0.75;;;17.20;99.90;;;;;;5040640;28;20073;-82
2022/10/18 12:49:36;;;;;;;10.05;1.27;;;17.20;99.90;;;;;;5039400;28;20590;-82
2022/10/18 12:52:18;;;;;;;5.38;0.88;;;17.20;99.90;;;;;;5022711;28;20053;-81
2022/10/18 12:55:23;;;;;;;5.20;0.73;;;17.20;99.90;;;;;;5057267;28;20049;-82
2022/10/18 12:57:52;;;;;;;5.28;1.10;;;17.30;99.90;;;;;;5043100;28;20098;-82